sensor_id;sensor_type;location;lat;lon;timestamp;temperature;humidity
9219;DHT22;4644;48.858;9.184;2023-05-31T00:00:56;15.40;57.40
9219;DHT22;4644;48.858;9.184;2023-05-31T00:03:26;15.40;58.00
9219;DHT22;4644;48.858;9.184;2023-05-31T00:05:55;15.50;57.40
9219;DHT22;4644;48.858;9.184;2023-05-31T00:08:22;15.60;56.10
9219;DHT22;4644;48.858;9.184;2023-05-31T00:10:49;15.60;56.00
9219;DHT22;4644;48.858;9.184;2023-05-31T00:13:16;15.60;56.00
9219;DHT22;4644;48.858;9.184;2023-05-31T00:15:43;15.60;56.10
9219;DHT22;4644;48.858;9.184;2023-05-31T00:18:10;15.50;56.50
9219;DHT22;4644;48.858;9.184;2023-05-31T00:20:37;15.50;56.10
9219;DHT22;4644;48.858;9.184;2023-05-31T00:23:05;15.50;56.00
9219;DHT22;4644;48.858;9.184;2023-05-31T00:25:32;15.50;55.70
9219;DHT22;4644;48.858;9.184;2023-05-31T00:28:00;15.50;55.60
9219;DHT22;4644;48.858;9.184;2023-05-31T00:30:27;15.70;55.30
9219;DHT22;4644;48.858;9.184;2023-05-31T00:32:54;15.60;55.40
9219;DHT22;4644;48.858;9.184;2023-05-31T00:35:21;15.50;55.30
9219;DHT22;4644;48.858;9.184;2023-05-31T00:37:48;15.50;55.30
9219;DHT22;4644;48.858;9.184;2023-05-31T00:40:17;15.40;55.30
9219;DHT22;4644;48.858;9.184;2023-05-31T00:42:45;15.50;55.20
9219;DHT22;4644;48.858;9.184;2023-05-31T00:45:12;15.50;55.20
9219;DHT22;4644;48.858;9.184;2023-05-31T00:47:39;15.50;55.30
9219;DHT22;4644;48.858;9.184;2023-05-31T00:50:07;15.50;55.20
9219;DHT22;4644;48.858;9.184;2023-05-31T00:52:34;15.50;55.40
9219;DHT22;4644;48.858;9.184;2023-05-31T00:55:02;15.50;55.40
9219;DHT22;4644;48.858;9.184;2023-05-31T00:57:31;15.40;56.50
9219;DHT22;4644;48.858;9.184;2023-05-31T00:59:58;15.40;56.10
9219;DHT22;4644;48.858;9.184;2023-05-31T01:02:25;15.30;56.00
9219;DHT22;4644;48.858;9.184;2023-05-31T01:04:52;15.20;56.00
9219;DHT22;4644;48.858;9.184;2023-05-31T01:07:19;15.20;56.50
9219;DHT22;4644;48.858;9.184;2023-05-31T01:09:46;15.10;56.90
9219;DHT22;4644;48.858;9.184;2023-05-31T01:12:19;15.10;57.10
9219;DHT22;4644;48.858;9.184;2023-05-31T01:14:59;15.10;57.40
9219;DHT22;4644;48.858;9.184;2023-05-31T01:17:30;14.90;58.20
9219;DHT22;4644;48.858;9.184;2023-05-31T01:20:01;14.80;57.70
9219;DHT22;4644;48.858;9.184;2023-05-31T01:22:40;14.70;58.00
9219;DHT22;4644;48.858;9.184;2023-05-31T01:28:24;14.60;58.90
9219;DHT22;4644;48.858;9.184;2023-05-31T01:30:53;14.50;58.60
9219;DHT22;4644;48.858;9.184;2023-05-31T01:33:22;14.50;58.60
9219;DHT22;4644;48.858;9.184;2023-05-31T01:35:49;14.50;58.80
9219;DHT22;4644;48.858;9.184;2023-05-31T01:38:16;14.40;59.10
9219;DHT22;4644;48.858;9.184;2023-05-31T01:40:44;14.40;59.50
9219;DHT22;4644;48.858;9.184;2023-05-31T01:43:11;14.30;60.00
9219;DHT22;4644;48.858;9.184;2023-05-31T01:45:41;14.30;61.10
9219;DHT22;4644;48.858;9.184;2023-05-31T01:48:08;14.20;60.60
9219;DHT22;4644;48.858;9.184;2023-05-31T01:50:37;14.10;63.70
9219;DHT22;4644;48.858;9.184;2023-05-31T01:53:06;14.00;63.40
9219;DHT22;4644;48.858;9.184;2023-05-31T01:55:33;13.90;65.00
9219;DHT22;4644;48.858;9.184;2023-05-31T01:58:00;13.80;64.90
9219;DHT22;4644;48.858;9.184;2023-05-31T02:00:28;13.70;66.40
9219;DHT22;4644;48.858;9.184;2023-05-31T02:02:57;13.60;67.20
9219;DHT22;4644;48.858;9.184;2023-05-31T02:05:24;13.60;66.40
9219;DHT22;4644;48.858;9.184;2023-05-31T02:07:51;13.50;66.30
9219;DHT22;4644;48.858;9.184;2023-05-31T02:10:19;13.50;65.80
9219;DHT22;4644;48.858;9.184;2023-05-31T02:12:46;13.40;66.60
9219;DHT22;4644;48.858;9.184;2023-05-31T02:15:16;13.40;69.00
9219;DHT22;4644;48.858;9.184;2023-05-31T02:17:46;13.30;69.50
9219;DHT22;4644;48.858;9.184;2023-05-31T02:20:18;13.30;68.50
9219;DHT22;4644;48.858;9.184;2023-05-31T02:22:46;13.10;69.50
9219;DHT22;4644;48.858;9.184;2023-05-31T02:25:16;13.10;68.90
9219;DHT22;4644;48.858;9.184;2023-05-31T02:27:43;13.10;69.30
9219;DHT22;4644;48.858;9.184;2023-05-31T02:30:11;13.00;69.80
9219;DHT22;4644;48.858;9.184;2023-05-31T02:32:38;13.10;70.70
9219;DHT22;4644;48.858;9.184;2023-05-31T02:35:08;13.00;71.70
9219;DHT22;4644;48.858;9.184;2023-05-31T02:37:38;13.00;70.70
9219;DHT22;4644;48.858;9.184;2023-05-31T02:40:07;12.90;72.00
9219;DHT22;4644;48.858;9.184;2023-05-31T02:42:37;12.90;71.20
9219;DHT22;4644;48.858;9.184;2023-05-31T02:45:05;12.90;71.50
9219;DHT22;4644;48.858;9.184;2023-05-31T02:47:33;12.90;71.10
9219;DHT22;4644;48.858;9.184;2023-05-31T02:50:00;12.80;70.40
9219;DHT22;4644;48.858;9.184;2023-05-31T02:52:27;12.80;70.20
9219;DHT22;4644;48.858;9.184;2023-05-31T02:54:56;12.80;68.80
9219;DHT22;4644;48.858;9.184;2023-05-31T02:57:23;12.80;69.80
9219;DHT22;4644;48.858;9.184;2023-05-31T02:59:54;12.80;68.90
9219;DHT22;4644;48.858;9.184;2023-05-31T03:02:22;12.80;68.80
9219;DHT22;4644;48.858;9.184;2023-05-31T03:04:49;12.90;68.70
9219;DHT22;4644;48.858;9.184;2023-05-31T03:07:17;12.90;68.10
9219;DHT22;4644;48.858;9.184;2023-05-31T03:09:44;12.90;68.80
9219;DHT22;4644;48.858;9.184;2023-05-31T03:12:12;12.90;68.50
9219;DHT22;4644;48.858;9.184;2023-05-31T03:14:39;12.90;68.90
9219;DHT22;4644;48.858;9.184;2023-05-31T03:17:08;12.90;67.90
9219;DHT22;4644;48.858;9.184;2023-05-31T03:19:35;12.90;69.10
9219;DHT22;4644;48.858;9.184;2023-05-31T03:22:02;12.90;67.80
9219;DHT22;4644;48.858;9.184;2023-05-31T03:24:29;12.90;67.80
9219;DHT22;4644;48.858;9.184;2023-05-31T03:26:56;13.00;68.10
9219;DHT22;4644;48.858;9.184;2023-05-31T03:29:25;13.00;68.60
9219;DHT22;4644;48.858;9.184;2023-05-31T03:31:52;13.00;68.50
9219;DHT22;4644;48.858;9.184;2023-05-31T03:34:20;13.00;67.00
9219;DHT22;4644;48.858;9.184;2023-05-31T03:36:48;13.00;68.20
9219;DHT22;4644;48.858;9.184;2023-05-31T03:39:16;13.00;67.70
9219;DHT22;4644;48.858;9.184;2023-05-31T03:41:43;13.00;67.40
9219;DHT22;4644;48.858;9.184;2023-05-31T03:44:10;13.10;66.80
9219;DHT22;4644;48.858;9.184;2023-05-31T03:46:39;13.20;66.40
9219;DHT22;4644;48.858;9.184;2023-05-31T03:49:06;13.30;66.20
9219;DHT22;4644;48.858;9.184;2023-05-31T03:51:33;13.30;65.80
9219;DHT22;4644;48.858;9.184;2023-05-31T03:54:00;13.30;66.70
9219;DHT22;4644;48.858;9.184;2023-05-31T03:56:28;13.20;67.80
9219;DHT22;4644;48.858;9.184;2023-05-31T03:58:55;13.20;66.20
9219;DHT22;4644;48.858;9.184;2023-05-31T04:01:22;13.20;66.50
9219;DHT22;4644;48.858;9.184;2023-05-31T04:03:50;13.20;66.50
9219;DHT22;4644;48.858;9.184;2023-05-31T04:06:17;13.20;66.90
9219;DHT22;4644;48.858;9.184;2023-05-31T04:08:44;13.20;66.90
9219;DHT22;4644;48.858;9.184;2023-05-31T04:11:12;13.20;67.10
9219;DHT22;4644;48.858;9.184;2023-05-31T04:13:39;13.20;67.40
9219;DHT22;4644;48.858;9.184;2023-05-31T04:16:06;13.20;68.00
9219;DHT22;4644;48.858;9.184;2023-05-31T04:18:33;13.20;67.40
9219;DHT22;4644;48.858;9.184;2023-05-31T04:21:02;13.20;67.50
9219;DHT22;4644;48.858;9.184;2023-05-31T04:23:30;13.30;67.70
9219;DHT22;4644;48.858;9.184;2023-05-31T04:25:57;13.40;66.50
9219;DHT22;4644;48.858;9.184;2023-05-31T04:28:25;13.40;66.80
9219;DHT22;4644;48.858;9.184;2023-05-31T04:30:55;13.50;66.10
9219;DHT22;4644;48.858;9.184;2023-05-31T04:33:22;13.60;65.90
9219;DHT22;4644;48.858;9.184;2023-05-31T04:35:50;13.70;66.00
9219;DHT22;4644;48.858;9.184;2023-05-31T04:38:19;13.70;67.40
9219;DHT22;4644;48.858;9.184;2023-05-31T04:40:48;13.80;66.00
9219;DHT22;4644;48.858;9.184;2023-05-31T04:43:15;13.90;65.40
9219;DHT22;4644;48.858;9.184;2023-05-31T04:45:43;13.90;66.30
9219;DHT22;4644;48.858;9.184;2023-05-31T04:48:10;14.00;66.30
9219;DHT22;4644;48.858;9.184;2023-05-31T04:50:37;14.10;65.30
9219;DHT22;4644;48.858;9.184;2023-05-31T04:53:04;14.10;64.70
9219;DHT22;4644;48.858;9.184;2023-05-31T04:55:33;14.30;65.40
9219;DHT22;4644;48.858;9.184;2023-05-31T04:58:00;14.40;66.50
9219;DHT22;4644;48.858;9.184;2023-05-31T05:00:27;14.70;64.70
9219;DHT22;4644;48.858;9.184;2023-05-31T05:02:54;15.10;63.80
9219;DHT22;4644;48.858;9.184;2023-05-31T05:05:22;15.30;62.40
9219;DHT22;4644;48.858;9.184;2023-05-31T05:07:49;15.60;62.00
9219;DHT22;4644;48.858;9.184;2023-05-31T05:10:17;15.70;60.90
9219;DHT22;4644;48.858;9.184;2023-05-31T05:12:46;15.80;61.50
9219;DHT22;4644;48.858;9.184;2023-05-31T05:15:13;16.20;61.20
9219;DHT22;4644;48.858;9.184;2023-05-31T05:17:40;16.30;59.50
9219;DHT22;4644;48.858;9.184;2023-05-31T05:20:10;16.30;59.60
9219;DHT22;4644;48.858;9.184;2023-05-31T05:22:37;16.40;59.40
9219;DHT22;4644;48.858;9.184;2023-05-31T05:25:06;16.50;59.00
9219;DHT22;4644;48.858;9.184;2023-05-31T05:27:33;16.50;59.40
9219;DHT22;4644;48.858;9.184;2023-05-31T05:30:04;16.60;59.70
9219;DHT22;4644;48.858;9.184;2023-05-31T05:32:31;16.50;59.50
9219;DHT22;4644;48.858;9.184;2023-05-31T05:34:59;16.20;59.80
9219;DHT22;4644;48.858;9.184;2023-05-31T05:37:26;16.30;59.60
9219;DHT22;4644;48.858;9.184;2023-05-31T05:39:53;16.60;59.50
9219;DHT22;4644;48.858;9.184;2023-05-31T05:42:20;16.70;59.20
9219;DHT22;4644;48.858;9.184;2023-05-31T05:44:49;16.70;59.10
9219;DHT22;4644;48.858;9.184;2023-05-31T05:47:17;16.50;59.20
9219;DHT22;4644;48.858;9.184;2023-05-31T05:49:44;16.50;59.10
9219;DHT22;4644;48.858;9.184;2023-05-31T05:52:14;16.60;60.50
9219;DHT22;4644;48.858;9.184;2023-05-31T05:54:41;16.90;59.40
9219;DHT22;4644;48.858;9.184;2023-05-31T05:57:08;17.10;59.20
9219;DHT22;4644;48.858;9.184;2023-05-31T05:59:36;17.50;58.20
9219;DHT22;4644;48.858;9.184;2023-05-31T06:02:03;17.80;58.40
9219;DHT22;4644;48.858;9.184;2023-05-31T06:04:32;17.80;57.80
9219;DHT22;4644;48.858;9.184;2023-05-31T06:06:59;17.70;57.70
9219;DHT22;4644;48.858;9.184;2023-05-31T06:09:26;18.00;57.90
9219;DHT22;4644;48.858;9.184;2023-05-31T06:11:53;18.20;57.10
9219;DHT22;4644;48.858;9.184;2023-05-31T06:14:20;18.50;57.30
9219;DHT22;4644;48.858;9.184;2023-05-31T06:16:47;18.50;56.10
9219;DHT22;4644;48.858;9.184;2023-05-31T06:19:15;18.80;56.80
9219;DHT22;4644;48.858;9.184;2023-05-31T06:21:43;18.90;56.00
9219;DHT22;4644;48.858;9.184;2023-05-31T06:24:10;18.90;55.40
9219;DHT22;4644;48.858;9.184;2023-05-31T06:26:37;18.60;55.50
9219;DHT22;4644;48.858;9.184;2023-05-31T06:29:05;18.80;56.10
9219;DHT22;4644;48.858;9.184;2023-05-31T06:31:33;18.80;56.00
9219;DHT22;4644;48.858;9.184;2023-05-31T06:34:01;19.00;55.80
9219;DHT22;4644;48.858;9.184;2023-05-31T06:36:29;19.50;55.00
9219;DHT22;4644;48.858;9.184;2023-05-31T06:38:58;19.90;54.60
9219;DHT22;4644;48.858;9.184;2023-05-31T06:41:25;20.10;55.00
9219;DHT22;4644;48.858;9.184;2023-05-31T06:43:55;20.20;54.10
9219;DHT22;4644;48.858;9.184;2023-05-31T06:46:22;20.10;55.30
9219;DHT22;4644;48.858;9.184;2023-05-31T06:48:49;20.50;55.00
9219;DHT22;4644;48.858;9.184;2023-05-31T06:51:17;20.80;53.10
9219;DHT22;4644;48.858;9.184;2023-05-31T06:53:46;21.00;51.80
9219;DHT22;4644;48.858;9.184;2023-05-31T06:56:14;21.00;52.30
9219;DHT22;4644;48.858;9.184;2023-05-31T06:58:42;21.10;52.60
9219;DHT22;4644;48.858;9.184;2023-05-31T07:01:09;21.20;51.50
9219;DHT22;4644;48.858;9.184;2023-05-31T07:03:37;21.40;51.60
9219;DHT22;4644;48.858;9.184;2023-05-31T07:06:04;21.50;51.70
9219;DHT22;4644;48.858;9.184;2023-05-31T07:08:31;21.50;52.40
9219;DHT22;4644;48.858;9.184;2023-05-31T07:10:58;21.50;51.90
9219;DHT22;4644;48.858;9.184;2023-05-31T07:13:26;21.50;51.30
9219;DHT22;4644;48.858;9.184;2023-05-31T07:15:53;21.80;51.10
9219;DHT22;4644;48.858;9.184;2023-05-31T07:18:20;21.90;50.40
9219;DHT22;4644;48.858;9.184;2023-05-31T07:20:47;21.90;51.00
9219;DHT22;4644;48.858;9.184;2023-05-31T07:23:14;22.10;50.30
9219;DHT22;4644;48.858;9.184;2023-05-31T07:25:42;22.20;50.10
9219;DHT22;4644;48.858;9.184;2023-05-31T07:28:09;22.40;49.80
9219;DHT22;4644;48.858;9.184;2023-05-31T07:30:38;22.40;49.60
9219;DHT22;4644;48.858;9.184;2023-05-31T07:33:05;22.10;51.00
9219;DHT22;4644;48.858;9.184;2023-05-31T07:35:32;22.60;50.40
9219;DHT22;4644;48.858;9.184;2023-05-31T07:38:00;22.80;49.50
9219;DHT22;4644;48.858;9.184;2023-05-31T07:40:28;22.60;50.10
9219;DHT22;4644;48.858;9.184;2023-05-31T07:42:55;22.60;49.30
9219;DHT22;4644;48.858;9.184;2023-05-31T07:45:22;22.90;49.80
9219;DHT22;4644;48.858;9.184;2023-05-31T07:47:50;22.90;49.30
9219;DHT22;4644;48.858;9.184;2023-05-31T07:50:18;22.80;48.10
9219;DHT22;4644;48.858;9.184;2023-05-31T07:52:45;22.90;49.80
9219;DHT22;4644;48.858;9.184;2023-05-31T07:55:15;23.10;48.90
9219;DHT22;4644;48.858;9.184;2023-05-31T07:57:43;22.90;47.40
9219;DHT22;4644;48.858;9.184;2023-05-31T08:00:11;23.20;47.90
9219;DHT22;4644;48.858;9.184;2023-05-31T08:02:39;23.60;47.90
9219;DHT22;4644;48.858;9.184;2023-05-31T08:05:08;23.90;47.10
9219;DHT22;4644;48.858;9.184;2023-05-31T08:07:35;24.00;46.00
9219;DHT22;4644;48.858;9.184;2023-05-31T08:10:03;23.90;47.60
9219;DHT22;4644;48.858;9.184;2023-05-31T08:12:31;24.10;47.50
9219;DHT22;4644;48.858;9.184;2023-05-31T08:14:58;24.10;46.60
9219;DHT22;4644;48.858;9.184;2023-05-31T08:17:26;24.00;46.60
9219;DHT22;4644;48.858;9.184;2023-05-31T08:19:53;24.20;46.40
9219;DHT22;4644;48.858;9.184;2023-05-31T08:22:22;24.20;46.50
9219;DHT22;4644;48.858;9.184;2023-05-31T08:24:49;24.00;46.30
9219;DHT22;4644;48.858;9.184;2023-05-31T08:27:16;24.30;48.10
9219;DHT22;4644;48.858;9.184;2023-05-31T08:29:44;24.20;47.00
9219;DHT22;4644;48.858;9.184;2023-05-31T08:32:11;24.30;46.20
9219;DHT22;4644;48.858;9.184;2023-05-31T08:34:39;24.50;46.20
9219;DHT22;4644;48.858;9.184;2023-05-31T08:37:07;24.30;46.00
9219;DHT22;4644;48.858;9.184;2023-05-31T08:39:37;24.40;47.10
9219;DHT22;4644;48.858;9.184;2023-05-31T08:42:09;24.50;46.20
9219;DHT22;4644;48.858;9.184;2023-05-31T08:44:37;24.80;47.50
9219;DHT22;4644;48.858;9.184;2023-05-31T08:47:08;25.10;45.80
9219;DHT22;4644;48.858;9.184;2023-05-31T08:49:39;25.00;45.90
9219;DHT22;4644;48.858;9.184;2023-05-31T08:52:08;25.00;47.20
9219;DHT22;4644;48.858;9.184;2023-05-31T08:54:37;25.30;47.00
9219;DHT22;4644;48.858;9.184;2023-05-31T08:57:05;25.00;45.90
9219;DHT22;4644;48.858;9.184;2023-05-31T08:59:34;25.30;46.20
9219;DHT22;4644;48.858;9.184;2023-05-31T09:02:03;25.50;45.10
9219;DHT22;4644;48.858;9.184;2023-05-31T09:04:30;25.60;45.80
9219;DHT22;4644;48.858;9.184;2023-05-31T09:06:59;25.50;45.10
9219;DHT22;4644;48.858;9.184;2023-05-31T09:09:26;25.50;45.00
9219;DHT22;4644;48.858;9.184;2023-05-31T09:11:55;25.70;44.50
9219;DHT22;4644;48.858;9.184;2023-05-31T09:14:23;25.70;44.50
9219;DHT22;4644;48.858;9.184;2023-05-31T09:16:50;25.90;45.10
9219;DHT22;4644;48.858;9.184;2023-05-31T09:19:17;26.10;44.40
9219;DHT22;4644;48.858;9.184;2023-05-31T09:21:45;25.90;44.50
9219;DHT22;4644;48.858;9.184;2023-05-31T09:24:13;26.20;43.40
9219;DHT22;4644;48.858;9.184;2023-05-31T09:26:46;26.40;44.50
9219;DHT22;4644;48.858;9.184;2023-05-31T09:29:15;26.70;44.30
9219;DHT22;4644;48.858;9.184;2023-05-31T09:31:44;26.60;42.40
9219;DHT22;4644;48.858;9.184;2023-05-31T09:34:25;26.80;43.20
9219;DHT22;4644;48.858;9.184;2023-05-31T09:36:57;27.10;42.60
9219;DHT22;4644;48.858;9.184;2023-05-31T09:39:25;26.80;44.30
9219;DHT22;4644;48.858;9.184;2023-05-31T09:41:52;26.90;43.90
9219;DHT22;4644;48.858;9.184;2023-05-31T09:44:25;27.00;44.40
9219;DHT22;4644;48.858;9.184;2023-05-31T09:46:52;27.10;42.60
9219;DHT22;4644;48.858;9.184;2023-05-31T09:49:20;26.80;41.40
9219;DHT22;4644;48.858;9.184;2023-05-31T09:51:50;26.90;41.60
9219;DHT22;4644;48.858;9.184;2023-05-31T09:54:18;27.30;42.90
9219;DHT22;4644;48.858;9.184;2023-05-31T09:56:48;27.20;41.80
9219;DHT22;4644;48.858;9.184;2023-05-31T09:59:15;27.30;42.50
9219;DHT22;4644;48.858;9.184;2023-05-31T10:01:44;27.60;42.00
9219;DHT22;4644;48.858;9.184;2023-05-31T10:04:12;27.40;40.60
9219;DHT22;4644;48.858;9.184;2023-05-31T10:06:39;27.30;39.90
9219;DHT22;4644;48.858;9.184;2023-05-31T10:09:07;27.30;40.80
9219;DHT22;4644;48.858;9.184;2023-05-31T10:11:36;27.30;40.30
9219;DHT22;4644;48.858;9.184;2023-05-31T10:14:06;27.30;41.00
9219;DHT22;4644;48.858;9.184;2023-05-31T10:16:37;27.70;40.80
9219;DHT22;4644;48.858;9.184;2023-05-31T10:19:09;27.60;40.20
9219;DHT22;4644;48.858;9.184;2023-05-31T10:21:42;27.70;40.00
9219;DHT22;4644;48.858;9.184;2023-05-31T10:24:20;28.00;39.50
9219;DHT22;4644;48.858;9.184;2023-05-31T10:26:56;28.50;40.40
9219;DHT22;4644;48.858;9.184;2023-05-31T10:29:28;28.80;38.60
9219;DHT22;4644;48.858;9.184;2023-05-31T10:32:04;28.90;38.30
9219;DHT22;4644;48.858;9.184;2023-05-31T10:34:35;28.80;37.50
9219;DHT22;4644;48.858;9.184;2023-05-31T10:37:04;28.90;37.40
9219;DHT22;4644;48.858;9.184;2023-05-31T10:39:38;29.20;36.80
9219;DHT22;4644;48.858;9.184;2023-05-31T10:42:12;29.50;36.40
9219;DHT22;4644;48.858;9.184;2023-05-31T10:44:46;29.90;35.70
9219;DHT22;4644;48.858;9.184;2023-05-31T10:47:15;30.20;35.00
9219;DHT22;4644;48.858;9.184;2023-05-31T10:49:48;31.10;34.40
9219;DHT22;4644;48.858;9.184;2023-05-31T10:52:16;31.60;33.80
9219;DHT22;4644;48.858;9.184;2023-05-31T10:54:43;32.30;34.10
9219;DHT22;4644;48.858;9.184;2023-05-31T10:57:12;33.00;32.70
9219;DHT22;4644;48.858;9.184;2023-05-31T10:59:42;33.00;30.90
9219;DHT22;4644;48.858;9.184;2023-05-31T11:02:11;32.70;31.80
9219;DHT22;4644;48.858;9.184;2023-05-31T11:04:38;32.20;32.00
9219;DHT22;4644;48.858;9.184;2023-05-31T11:07:15;32.40;31.90
9219;DHT22;4644;48.858;9.184;2023-05-31T11:09:59;33.00;31.90
9219;DHT22;4644;48.858;9.184;2023-05-31T11:12:32;33.80;29.80
9219;DHT22;4644;48.858;9.184;2023-05-31T11:15:00;34.50;29.70
9219;DHT22;4644;48.858;9.184;2023-05-31T11:17:38;34.30;28.90
9219;DHT22;4644;48.858;9.184;2023-05-31T11:20:14;33.90;29.20
9219;DHT22;4644;48.858;9.184;2023-05-31T11:22:43;34.50;29.10
9219;DHT22;4644;48.858;9.184;2023-05-31T11:25:18;33.70;28.60
9219;DHT22;4644;48.858;9.184;2023-05-31T11:27:46;33.00;29.60
9219;DHT22;4644;48.858;9.184;2023-05-31T11:30:16;33.70;29.00
9219;DHT22;4644;48.858;9.184;2023-05-31T11:32:56;34.80;28.40
9219;DHT22;4644;48.858;9.184;2023-05-31T11:35:24;35.30;27.60
9219;DHT22;4644;48.858;9.184;2023-05-31T11:38:04;35.40;27.80
9219;DHT22;4644;48.858;9.184;2023-05-31T11:40:32;35.30;27.60
9219;DHT22;4644;48.858;9.184;2023-05-31T11:43:08;34.60;27.10
9219;DHT22;4644;48.858;9.184;2023-05-31T11:45:45;35.40;27.00
9219;DHT22;4644;48.858;9.184;2023-05-31T11:48:23;35.40;26.70
9219;DHT22;4644;48.858;9.184;2023-05-31T11:50:53;34.80;27.60
9219;DHT22;4644;48.858;9.184;2023-05-31T11:53:22;34.40;28.20
9219;DHT22;4644;48.858;9.184;2023-05-31T11:55:49;33.40;28.30
9219;DHT22;4644;48.858;9.184;2023-05-31T11:58:19;32.00;29.00
9219;DHT22;4644;48.858;9.184;2023-05-31T12:00:48;30.70;30.90
9219;DHT22;4644;48.858;9.184;2023-05-31T12:03:16;30.10;31.50
9219;DHT22;4644;48.858;9.184;2023-05-31T12:05:49;29.40;31.70
9219;DHT22;4644;48.858;9.184;2023-05-31T12:08:17;28.90;34.00
9219;DHT22;4644;48.858;9.184;2023-05-31T12:10:46;28.30;35.30
9219;DHT22;4644;48.858;9.184;2023-05-31T12:13:16;28.80;35.30
9219;DHT22;4644;48.858;9.184;2023-05-31T12:15:51;28.90;33.90
9219;DHT22;4644;48.858;9.184;2023-05-31T12:18:19;28.70;34.70
9219;DHT22;4644;48.858;9.184;2023-05-31T12:20:48;28.40;34.30
9219;DHT22;4644;48.858;9.184;2023-05-31T12:23:15;28.00;34.20
9219;DHT22;4644;48.858;9.184;2023-05-31T12:25:46;28.00;34.60
9219;DHT22;4644;48.858;9.184;2023-05-31T12:28:15;27.50;33.40
9219;DHT22;4644;48.858;9.184;2023-05-31T12:30:45;27.50;35.00
9219;DHT22;4644;48.858;9.184;2023-05-31T12:33:13;27.30;33.90
9219;DHT22;4644;48.858;9.184;2023-05-31T12:35:41;27.00;34.00
9219;DHT22;4644;48.858;9.184;2023-05-31T12:38:08;26.70;35.60
9219;DHT22;4644;48.858;9.184;2023-05-31T12:40:40;27.00;36.00
9219;DHT22;4644;48.858;9.184;2023-05-31T12:43:10;26.70;35.90
9219;DHT22;4644;48.858;9.184;2023-05-31T12:45:39;26.60;35.60
9219;DHT22;4644;48.858;9.184;2023-05-31T12:48:08;26.40;36.00
9219;DHT22;4644;48.858;9.184;2023-05-31T12:50:36;26.40;35.60
9219;DHT22;4644;48.858;9.184;2023-05-31T12:53:06;26.30;35.50
9219;DHT22;4644;48.858;9.184;2023-05-31T12:55:34;26.50;37.60
9219;DHT22;4644;48.858;9.184;2023-05-31T12:58:01;26.80;36.40
9219;DHT22;4644;48.858;9.184;2023-05-31T13:00:30;26.80;34.80
9219;DHT22;4644;48.858;9.184;2023-05-31T13:02:57;26.80;34.70
9219;DHT22;4644;48.858;9.184;2023-05-31T13:05:24;26.80;33.90
9219;DHT22;4644;48.858;9.184;2023-05-31T13:07:52;26.60;34.80
9219;DHT22;4644;48.858;9.184;2023-05-31T13:10:20;26.60;33.80
9219;DHT22;4644;48.858;9.184;2023-05-31T13:12:47;26.50;34.10
9219;DHT22;4644;48.858;9.184;2023-05-31T13:15:14;26.50;35.00
9219;DHT22;4644;48.858;9.184;2023-05-31T13:17:43;26.30;33.70
9219;DHT22;4644;48.858;9.184;2023-05-31T13:20:10;26.10;34.80
9219;DHT22;4644;48.858;9.184;2023-05-31T13:22:39;25.70;33.90
9219;DHT22;4644;48.858;9.184;2023-05-31T13:25:07;25.80;34.70
9219;DHT22;4644;48.858;9.184;2023-05-31T13:27:35;26.00;34.10
9219;DHT22;4644;48.858;9.184;2023-05-31T13:30:02;26.20;34.60
9219;DHT22;4644;48.858;9.184;2023-05-31T13:32:31;26.00;34.40
9219;DHT22;4644;48.858;9.184;2023-05-31T13:35:01;26.00;34.30
9219;DHT22;4644;48.858;9.184;2023-05-31T13:37:29;25.90;33.80
9219;DHT22;4644;48.858;9.184;2023-05-31T13:39:57;26.00;34.10
9219;DHT22;4644;48.858;9.184;2023-05-31T13:42:24;26.00;34.50
9219;DHT22;4644;48.858;9.184;2023-05-31T13:44:51;26.10;34.10
9219;DHT22;4644;48.858;9.184;2023-05-31T13:47:19;26.10;33.30
9219;DHT22;4644;48.858;9.184;2023-05-31T13:49:46;26.00;32.90
9219;DHT22;4644;48.858;9.184;2023-05-31T13:52:15;26.20;34.00
9219;DHT22;4644;48.858;9.184;2023-05-31T13:54:42;26.00;34.80
9219;DHT22;4644;48.858;9.184;2023-05-31T13:57:10;25.90;33.40
9219;DHT22;4644;48.858;9.184;2023-05-31T13:59:37;25.70;34.60
9219;DHT22;4644;48.858;9.184;2023-05-31T14:02:04;25.70;32.60
9219;DHT22;4644;48.858;9.184;2023-05-31T14:04:31;25.70;34.00
9219;DHT22;4644;48.858;9.184;2023-05-31T14:06:58;25.80;34.70
9219;DHT22;4644;48.858;9.184;2023-05-31T14:09:28;25.80;33.20
9219;DHT22;4644;48.858;9.184;2023-05-31T14:11:55;25.60;33.50
9219;DHT22;4644;48.858;9.184;2023-05-31T14:14:24;25.60;34.30
9219;DHT22;4644;48.858;9.184;2023-05-31T14:16:51;25.70;34.90
9219;DHT22;4644;48.858;9.184;2023-05-31T14:19:19;25.70;33.70
9219;DHT22;4644;48.858;9.184;2023-05-31T14:21:46;25.70;33.30
9219;DHT22;4644;48.858;9.184;2023-05-31T14:24:13;25.70;33.30
9219;DHT22;4644;48.858;9.184;2023-05-31T14:26:41;25.80;32.90
9219;DHT22;4644;48.858;9.184;2023-05-31T14:29:08;25.70;34.00
9219;DHT22;4644;48.858;9.184;2023-05-31T14:31:35;25.80;33.70
9219;DHT22;4644;48.858;9.184;2023-05-31T14:34:03;25.80;33.20
9219;DHT22;4644;48.858;9.184;2023-05-31T14:36:30;25.60;33.80
9219;DHT22;4644;48.858;9.184;2023-05-31T14:38:57;25.60;33.70
9219;DHT22;4644;48.858;9.184;2023-05-31T14:41:24;25.60;34.00
9219;DHT22;4644;48.858;9.184;2023-05-31T14:43:53;25.80;34.30
9219;DHT22;4644;48.858;9.184;2023-05-31T14:46:21;25.70;33.30
9219;DHT22;4644;48.858;9.184;2023-05-31T14:48:48;25.70;33.70
9219;DHT22;4644;48.858;9.184;2023-05-31T14:51:15;25.80;33.30
9219;DHT22;4644;48.858;9.184;2023-05-31T14:53:42;25.90;33.70
9219;DHT22;4644;48.858;9.184;2023-05-31T14:56:09;26.40;33.70
9219;DHT22;4644;48.858;9.184;2023-05-31T14:58:36;26.70;32.00
9219;DHT22;4644;48.858;9.184;2023-05-31T15:01:04;26.80;32.50
9219;DHT22;4644;48.858;9.184;2023-05-31T15:03:31;27.20;31.80
9219;DHT22;4644;48.858;9.184;2023-05-31T15:05:58;27.80;30.80
9219;DHT22;4644;48.858;9.184;2023-05-31T15:08:27;28.90;30.10
9219;DHT22;4644;48.858;9.184;2023-05-31T15:10:55;30.10;30.30
9219;DHT22;4644;48.858;9.184;2023-05-31T15:13:22;31.50;28.30
9219;DHT22;4644;48.858;9.184;2023-05-31T15:15:49;32.90;27.40
9219;DHT22;4644;48.858;9.184;2023-05-31T15:18:18;33.90;26.30
9219;DHT22;4644;48.858;9.184;2023-05-31T15:20:45;35.40;25.80
9219;DHT22;4644;48.858;9.184;2023-05-31T15:23:13;35.20;25.50
9219;DHT22;4644;48.858;9.184;2023-05-31T15:25:40;35.70;25.70
9219;DHT22;4644;48.858;9.184;2023-05-31T15:28:08;35.90;24.90
9219;DHT22;4644;48.858;9.184;2023-05-31T15:30:35;36.70;24.60
9219;DHT22;4644;48.858;9.184;2023-05-31T15:33:02;37.40;24.60
9219;DHT22;4644;48.858;9.184;2023-05-31T15:35:31;37.70;23.60
9219;DHT22;4644;48.858;9.184;2023-05-31T15:38:00;37.30;23.50
9219;DHT22;4644;48.858;9.184;2023-05-31T15:40:27;37.60;23.40
9219;DHT22;4644;48.858;9.184;2023-05-31T15:42:54;38.10;23.10
9219;DHT22;4644;48.858;9.184;2023-05-31T15:45:21;39.20;22.90
9219;DHT22;4644;48.858;9.184;2023-05-31T15:47:48;38.90;23.20
9219;DHT22;4644;48.858;9.184;2023-05-31T15:50:15;40.00;22.70
9219;DHT22;4644;48.858;9.184;2023-05-31T15:52:44;39.70;22.00
9219;DHT22;4644;48.858;9.184;2023-05-31T15:55:11;38.00;23.20
9219;DHT22;4644;48.858;9.184;2023-05-31T15:57:38;38.20;23.10
9219;DHT22;4644;48.858;9.184;2023-05-31T16:00:07;37.70;23.80
9219;DHT22;4644;48.858;9.184;2023-05-31T16:02:34;38.70;23.50
9219;DHT22;4644;48.858;9.184;2023-05-31T16:05:01;39.80;23.00
9219;DHT22;4644;48.858;9.184;2023-05-31T16:07:28;40.40;22.70
9219;DHT22;4644;48.858;9.184;2023-05-31T16:09:57;40.80;21.90
9219;DHT22;4644;48.858;9.184;2023-05-31T16:12:24;40.40;21.90